IRM98 OIIE-UUEE
Flight info
| Callsign | IRM98 |
|---|---|
| Flight time | N/A |
| Altitude | 40000 |
| Route | PAXID N72 BAKUV N39 LASKA/K0876F400 DCT DITEK DCT KOTOD DCT UP DCT BASKO DCT LIDUS DCT SL DCT MOLED DCT MONAB |
| Aircraft | A346/H-SDE2E3FGHIJ3J4J5M1RWXY/LB1D1 |
Departure
| Time | 2026-05-06 16:04 |
|---|---|
| Airport | Imam Khomeini International Airport (OIIE) |
Arrival
| Time | N/A |
|---|---|
| Airport | Sheremetyevo International Airport (UUEE) |
| Time | Latitude | Longitude | Altitude | Speed | Heading |
|---|---|---|---|---|---|
| 2026-05-06 15:42 | 35.41018 | 51.15599 | 3278 ft | 0 kts | 193° |
| 2026-05-06 15:52 | 35.41040 | 51.15606 | 3277 ft | 4 kts | 194° |
| 2026-05-06 15:52 | 35.41064 | 51.15612 | 3274 ft | 4 kts | 184° |
| 2026-05-06 15:53 | 35.41085 | 51.15609 | 3274 ft | 4 kts | 153° |
| 2026-05-06 15:53 | 35.41098 | 51.15593 | 3274 ft | 4 kts | 117° |
| 2026-05-06 15:53 | 35.41107 | 51.15563 | 3274 ft | 4 kts | 106° |
| 2026-05-06 15:53 | 35.41113 | 51.15542 | 3274 ft | 1 kts | 109° |
| 2026-05-06 15:54 | 35.41113 | 51.15539 | 3274 ft | 0 kts | 109° |
| 2026-05-06 15:54 | 35.41114 | 51.15539 | 3274 ft | 0 kts | 109° |
| 2026-05-06 15:57 | 35.41113 | 51.15541 | 3274 ft | 0 kts | 109° |
| 2026-05-06 15:57 | 35.41111 | 51.15550 | 3275 ft | 3 kts | 109° |
| 2026-05-06 15:57 | 35.41101 | 51.15586 | 3278 ft | 5 kts | 103° |
| 2026-05-06 15:57 | 35.41101 | 51.15587 | 3278 ft | 0 kts | 103° |
| 2026-05-06 15:58 | 35.41101 | 51.15586 | 3278 ft | 0 kts | 102° |
| 2026-05-06 15:59 | 35.41091 | 51.15628 | 3276 ft | 12 kts | 109° |
| 2026-05-06 15:59 | 35.41063 | 51.15727 | 3277 ft | 9 kts | 108° |
| 2026-05-06 15:59 | 35.41094 | 51.15836 | 3278 ft | 21 kts | 31° |
| 2026-05-06 16:00 | 35.41179 | 51.15887 | 3276 ft | 14 kts | 49° |
| 2026-05-06 16:00 | 35.41171 | 51.16047 | 3274 ft | 20 kts | 112° |
| 2026-05-06 16:00 | 35.41126 | 51.16196 | 3272 ft | 16 kts | 109° |
| 2026-05-06 16:00 | 35.41104 | 51.16276 | 3271 ft | 0 kts | 108° |
| 2026-05-06 16:01 | 35.41103 | 51.16277 | 3271 ft | 2 kts | 108° |
| 2026-05-06 16:01 | 35.41087 | 51.16340 | 3268 ft | 11 kts | 107° |
| 2026-05-06 16:01 | 35.41075 | 51.16392 | 3267 ft | 10 kts | 104° |
| 2026-05-06 16:01 | 35.41097 | 51.16489 | 3265 ft | 15 kts | 30° |
| 2026-05-06 16:02 | 35.41122 | 51.16503 | 3265 ft | 19 kts | 23° |
| 2026-05-06 16:02 | 35.41275 | 51.16560 | 3268 ft | 17 kts | 14° |
| 2026-05-06 16:02 | 35.41308 | 51.16555 | 3272 ft | 7 kts | 333° |
| 2026-05-06 16:03 | 35.41330 | 51.16527 | 3272 ft | 0 kts | 293° |
| 2026-05-06 16:03 | 35.41388 | 51.16340 | 3271 ft | 56 kts | 289° |
| 2026-05-06 16:03 | 35.41579 | 51.15644 | 3280 ft | 114 kts | 288° |
| 2026-05-06 16:04 | 35.41890 | 51.14523 | 3296 ft | 162 kts | 289° |
| 2026-05-06 16:04 | 35.42302 | 51.13118 | 3665 ft | 176 kts | 286° |
| 2026-05-06 16:04 | 35.42779 | 51.11761 | 4498 ft | 174 kts | 304° |
| 2026-05-06 16:04 | 35.43819 | 51.10979 | 5133 ft | 183 kts | 346° |
| 2026-05-06 16:05 | 35.45137 | 51.10927 | 5489 ft | 192 kts | 346° |
| 2026-05-06 16:05 | 35.46323 | 51.10254 | 5785 ft | 194 kts | 312° |
| 2026-05-06 16:05 | 35.47207 | 51.08928 | 6081 ft | 207 kts | 304° |
| 2026-05-06 16:05 | 35.48084 | 51.07432 | 6375 ft | 223 kts | 304° |
| 2026-05-06 16:06 | 35.49047 | 51.05827 | 6632 ft | 241 kts | 304° |
| 2026-05-06 16:06 | 35.50097 | 51.04141 | 7111 ft | 254 kts | 305° |
| 2026-05-06 16:06 | 35.51208 | 51.02394 | 7562 ft | 269 kts | 306° |
| 2026-05-06 16:06 | 35.52388 | 51.00573 | 8279 ft | 273 kts | 306° |
| 2026-05-06 16:07 | 35.53601 | 50.98721 | 9055 ft | 278 kts | 306° |
| 2026-05-06 16:07 | 35.54817 | 50.96869 | 9823 ft | 282 kts | 306° |
| 2026-05-06 16:07 | 35.56060 | 50.94979 | 10518 ft | 290 kts | 305° |
| 2026-05-06 16:07 | 35.57374 | 50.92967 | 10984 ft | 308 kts | 305° |
| 2026-05-06 16:08 | 35.58734 | 50.90874 | 11418 ft | 326 kts | 305° |
| 2026-05-06 16:08 | 35.60219 | 50.88596 | 11886 ft | 345 kts | 305° |
| 2026-05-06 16:08 | 35.61733 | 50.86283 | 12457 ft | 356 kts | 305° |
| 2026-05-06 16:08 | 35.63306 | 50.83892 | 13355 ft | 360 kts | 304° |
| 2026-05-06 16:09 | 35.64885 | 50.81490 | 14236 ft | 362 kts | 304° |
| 2026-05-06 16:09 | 35.66483 | 50.79043 | 15043 ft | 366 kts | 303° |
| 2026-05-06 16:09 | 35.68081 | 50.76568 | 15851 ft | 369 kts | 301° |
| 2026-05-06 16:09 | 35.69465 | 50.73954 | 16650 ft | 368 kts | 294° |
| 2026-05-06 16:10 | 35.70618 | 50.71112 | 17475 ft | 371 kts | 292° |
| 2026-05-06 16:10 | 35.72168 | 50.68491 | 18278 ft | 387 kts | 309° |
| 2026-05-06 16:10 | 35.74395 | 50.66496 | 18997 ft | 404 kts | 326° |
| 2026-05-06 16:10 | 35.77007 | 50.65083 | 19687 ft | 413 kts | 331° |
| 2026-05-06 16:11 | 35.79660 | 50.63762 | 20324 ft | 418 kts | 330° |
| 2026-05-06 16:11 | 35.82348 | 50.62343 | 20973 ft | 422 kts | 329° |
| 2026-05-06 16:11 | 35.85031 | 50.60826 | 21641 ft | 426 kts | 327° |
| 2026-05-06 16:11 | 35.87718 | 50.59237 | 22274 ft | 431 kts | 327° |
| 2026-05-06 16:12 | 35.90430 | 50.57592 | 22916 ft | 435 kts | 326° |
| 2026-05-06 16:12 | 35.93198 | 50.55888 | 23569 ft | 439 kts | 326° |
| 2026-05-06 16:12 | 35.95960 | 50.54174 | 24117 ft | 444 kts | 326° |
| 2026-05-06 16:12 | 35.98733 | 50.52449 | 24668 ft | 447 kts | 326° |
| 2026-05-06 16:13 | 36.01554 | 50.50695 | 25256 ft | 450 kts | 326° |
| 2026-05-06 16:13 | 36.04336 | 50.48967 | 25816 ft | 454 kts | 326° |
| 2026-05-06 16:13 | 36.07161 | 50.47207 | 26390 ft | 456 kts | 325° |
| 2026-05-06 16:13 | 36.10002 | 50.45431 | 26914 ft | 452 kts | 325° |
| 2026-05-06 16:14 | 36.12792 | 50.43690 | 27111 ft | 450 kts | 325° |
| 2026-05-06 16:14 | 36.15633 | 50.41900 | 27243 ft | 462 kts | 325° |
| 2026-05-06 16:14 | 36.18528 | 50.40081 | 27763 ft | 466 kts | 325° |
| 2026-05-06 16:14 | 36.21406 | 50.38279 | 28325 ft | 468 kts | 325° |
| 2026-05-06 16:15 | 36.24376 | 50.36521 | 28851 ft | 476 kts | 329° |
| 2026-05-06 16:15 | 36.27493 | 50.35106 | 29361 ft | 486 kts | 335° |
| 2026-05-06 16:15 | 36.30828 | 50.34062 | 29863 ft | 496 kts | 341° |
| 2026-05-06 16:15 | 36.34272 | 50.33462 | 30464 ft | 502 kts | 347° |
| 2026-05-06 16:16 | 36.37795 | 50.33176 | 31162 ft | 501 kts | 349° |
| 2026-05-06 16:16 | 36.41269 | 50.32977 | 31927 ft | 497 kts | 350° |
| 2026-05-06 16:16 | 36.44674 | 50.32797 | 32661 ft | 493 kts | 350° |
| 2026-05-06 16:16 | 36.48108 | 50.32606 | 33281 ft | 491 kts | 349° |
| 2026-05-06 16:17 | 36.51533 | 50.32402 | 33847 ft | 489 kts | 349° |
| 2026-05-06 16:17 | 36.54932 | 50.32183 | 34364 ft | 488 kts | 348° |
| 2026-05-06 16:17 | 36.58297 | 50.31960 | 34785 ft | 487 kts | 348° |
| 2026-05-06 16:17 | 36.61692 | 50.31731 | 35176 ft | 488 kts | 348° |
| 2026-05-06 16:18 | 36.65061 | 50.31506 | 35562 ft | 488 kts | 348° |
| 2026-05-06 16:18 | 36.67387 | 50.31350 | 35858 ft | 488 kts | 348° |
| 2026-05-06 16:18 | 36.70783 | 50.31125 | 36288 ft | 489 kts | 348° |
| 2026-05-06 16:18 | 36.74173 | 50.30900 | 36777 ft | 489 kts | 347° |
| 2026-05-06 16:19 | 36.77587 | 50.30673 | 37112 ft | 491 kts | 348° |
| 2026-05-06 16:19 | 36.81041 | 50.30444 | 37318 ft | 494 kts | 348° |
| 2026-05-06 16:19 | 36.84385 | 50.30225 | 37557 ft | 495 kts | 348° |
| 2026-05-06 16:19 | 36.87935 | 50.29997 | 37834 ft | 497 kts | 348° |
| 2026-05-06 16:20 | 36.91401 | 50.29776 | 38020 ft | 499 kts | 348° |
| 2026-05-06 16:20 | 36.94873 | 50.29550 | 38035 ft | 501 kts | 348° |
| 2026-05-06 16:20 | 37.01815 | 50.29099 | 38040 ft | 499 kts | 348° |
| 2026-05-06 16:21 | 37.08743 | 50.28635 | 38048 ft | 499 kts | 347° |
| 2026-05-06 16:21 | 37.15703 | 50.28164 | 38050 ft | 500 kts | 348° |
| 2026-05-06 16:22 | 37.22662 | 50.27695 | 38049 ft | 500 kts | 348° |
| 2026-05-06 16:22 | 37.29599 | 50.27225 | 38051 ft | 501 kts | 348° |
| 2026-05-06 16:23 | 37.36599 | 50.26762 | 38050 ft | 502 kts | 348° |
| 2026-05-06 16:23 | 37.43556 | 50.26311 | 38044 ft | 503 kts | 348° |
| 2026-05-06 16:24 | 37.50572 | 50.25850 | 38047 ft | 503 kts | 348° |
| 2026-05-06 16:24 | 37.57543 | 50.25381 | 38044 ft | 503 kts | 348° |
| 2026-05-06 16:25 | 37.64541 | 50.24899 | 38038 ft | 503 kts | 348° |
| 2026-05-06 16:25 | 37.71508 | 50.24416 | 38031 ft | 503 kts | 348° |
| 2026-05-06 16:26 | 37.78518 | 50.23938 | 38038 ft | 503 kts | 348° |
| 2026-05-06 16:26 | 37.85488 | 50.23465 | 38041 ft | 503 kts | 348° |
| 2026-05-06 16:27 | 37.92492 | 50.22990 | 38040 ft | 503 kts | 348° |
| 2026-05-06 16:27 | 37.99493 | 50.22514 | 38042 ft | 503 kts | 348° |
| 2026-05-06 16:28 | 38.06470 | 50.22039 | 38042 ft | 503 kts | 348° |
| 2026-05-06 16:28 | 38.13489 | 50.21559 | 38046 ft | 503 kts | 348° |
| 2026-05-06 16:29 | 38.20451 | 50.21084 | 38046 ft | 503 kts | 348° |
| 2026-05-06 16:29 | 38.27445 | 50.20614 | 38042 ft | 503 kts | 349° |
| 2026-05-06 16:30 | 38.33283 | 50.20227 | 38046 ft | 504 kts | 349° |
| 2026-05-06 16:30 | 38.41475 | 50.19669 | 38049 ft | 504 kts | 349° |
| 2026-05-06 16:31 | 38.48455 | 50.19187 | 38048 ft | 504 kts | 349° |
| 2026-05-06 16:31 | 38.55483 | 50.18701 | 38052 ft | 505 kts | 349° |
| 2026-05-06 16:32 | 38.62499 | 50.18216 | 38046 ft | 505 kts | 349° |
| 2026-05-06 16:32 | 38.69467 | 50.17740 | 38055 ft | 503 kts | 348° |
| 2026-05-06 16:33 | 38.76435 | 50.17260 | 38054 ft | 498 kts | 348° |
| 2026-05-06 16:34 | 38.86829 | 50.16515 | 38049 ft | 498 kts | 348° |
| 2026-05-06 16:34 | 38.93760 | 50.16029 | 38047 ft | 498 kts | 348° |
| 2026-05-06 16:35 | 39.00654 | 50.15558 | 38048 ft | 497 kts | 348° |
| 2026-05-06 16:35 | 39.07567 | 50.15079 | 38049 ft | 497 kts | 348° |
| 2026-05-06 16:36 | 39.14495 | 50.14594 | 38048 ft | 497 kts | 348° |
| 2026-05-06 16:36 | 39.21366 | 50.14110 | 38045 ft | 497 kts | 348° |
| 2026-05-06 16:37 | 39.28274 | 50.13623 | 38037 ft | 496 kts | 348° |
| 2026-05-06 16:37 | 39.35149 | 50.13138 | 38045 ft | 496 kts | 348° |
| 2026-05-06 16:38 | 39.42076 | 50.12649 | 38050 ft | 496 kts | 348° |
| 2026-05-06 16:38 | 39.48944 | 50.12161 | 38041 ft | 496 kts | 348° |
| 2026-05-06 16:39 | 39.55868 | 50.11666 | 38045 ft | 496 kts | 348° |
| 2026-05-06 16:39 | 39.62731 | 50.11177 | 38042 ft | 495 kts | 348° |
| 2026-05-06 16:40 | 39.69615 | 50.10673 | 38046 ft | 495 kts | 348° |
| 2026-05-06 16:40 | 39.76479 | 50.10186 | 38048 ft | 496 kts | 348° |
| 2026-05-06 16:41 | 39.83405 | 50.09698 | 38047 ft | 496 kts | 348° |
| 2026-05-06 16:41 | 39.90273 | 50.09210 | 38047 ft | 496 kts | 348° |
| 2026-05-06 16:42 | 39.97195 | 50.08714 | 38040 ft | 496 kts | 348° |
| 2026-05-06 16:42 | 40.04080 | 50.08216 | 38040 ft | 496 kts | 348° |
| 2026-05-06 16:43 | 40.10942 | 50.07720 | 38036 ft | 496 kts | 348° |
| 2026-05-06 16:43 | 40.17855 | 50.07219 | 38032 ft | 496 kts | 348° |
| 2026-05-06 16:44 | 40.24763 | 50.06720 | 38031 ft | 496 kts | 348° |
| 2026-05-06 16:44 | 40.31635 | 50.06222 | 38033 ft | 496 kts | 348° |
| 2026-05-06 16:45 | 40.38549 | 50.05720 | 38036 ft | 497 kts | 349° |
| 2026-05-06 16:45 | 40.45429 | 50.05217 | 38044 ft | 497 kts | 348° |
| 2026-05-06 16:46 | 40.52378 | 50.04762 | 38043 ft | 499 kts | 349° |
| 2026-05-06 16:46 | 40.59323 | 50.04362 | 38038 ft | 499 kts | 349° |
| 2026-05-06 16:47 | 40.66296 | 50.03973 | 38035 ft | 500 kts | 349° |
| 2026-05-06 16:47 | 40.73053 | 50.03591 | 38028 ft | 500 kts | 349° |
| 2026-05-06 16:48 | 40.79964 | 50.03190 | 38031 ft | 500 kts | 349° |
| 2026-05-06 16:48 | 40.86938 | 50.02775 | 38032 ft | 500 kts | 349° |
| 2026-05-06 16:49 | 40.93908 | 50.02381 | 38042 ft | 500 kts | 350° |
| 2026-05-06 16:49 | 41.00843 | 50.01975 | 38040 ft | 499 kts | 349° |
| 2026-05-06 16:50 | 41.07801 | 50.01566 | 38034 ft | 498 kts | 349° |
| 2026-05-06 16:50 | 41.14596 | 50.00606 | 38051 ft | 489 kts | 342° |
| 2026-05-06 16:51 | 41.21236 | 49.98623 | 38040 ft | 483 kts | 336° |
| 2026-05-06 16:52 | 41.33922 | 49.93977 | 38037 ft | 482 kts | 337° |
| 2026-05-06 16:52 | 41.40415 | 49.91603 | 38037 ft | 482 kts | 336° |
| 2026-05-06 16:53 | 41.46860 | 49.89243 | 38035 ft | 482 kts | 337° |
| 2026-05-06 16:53 | 41.53350 | 49.86872 | 38033 ft | 482 kts | 336° |
| 2026-05-06 16:54 | 41.59809 | 49.84514 | 38035 ft | 483 kts | 337° |
| 2026-05-06 16:54 | 41.66275 | 49.82148 | 38034 ft | 483 kts | 337° |
| 2026-05-06 16:55 | 41.72788 | 49.79744 | 38040 ft | 484 kts | 337° |
| 2026-05-06 16:55 | 41.79269 | 49.77353 | 38040 ft | 488 kts | 337° |
| 2026-05-06 16:55 | 41.82558 | 49.76133 | 38196 ft | 492 kts | 337° |
| 2026-05-06 16:56 | 41.85868 | 49.74907 | 38493 ft | 493 kts | 337° |
| 2026-05-06 16:56 | 41.89183 | 49.73681 | 38805 ft | 492 kts | 338° |
| 2026-05-06 16:56 | 41.92446 | 49.72473 | 39053 ft | 492 kts | 338° |
| 2026-05-06 16:56 | 41.95767 | 49.71244 | 39290 ft | 493 kts | 338° |
| 2026-05-06 16:57 | 41.99065 | 49.70022 | 39512 ft | 493 kts | 338° |
| 2026-05-06 16:57 | 42.02394 | 49.68790 | 39728 ft | 493 kts | 338° |
| 2026-05-06 16:57 | 42.05702 | 49.67563 | 39938 ft | 494 kts | 338° |
| 2026-05-06 16:58 | 42.12362 | 49.65084 | 40021 ft | 494 kts | 338° |
| 2026-05-06 16:58 | 42.18964 | 49.62629 | 40026 ft | 494 kts | 339° |
| 2026-05-06 16:59 | 42.25588 | 49.60165 | 40025 ft | 495 kts | 338° |
| 2026-05-06 16:59 | 42.32233 | 49.57669 | 40014 ft | 495 kts | 338° |
| 2026-05-06 17:00 | 42.38738 | 49.54725 | 40011 ft | 489 kts | 332° |
| 2026-05-06 17:00 | 42.44895 | 49.50902 | 40016 ft | 485 kts | 327° |
| 2026-05-06 17:01 | 42.50883 | 49.46698 | 40019 ft | 485 kts | 327° |
| 2026-05-06 17:01 | 42.56888 | 49.42451 | 40017 ft | 484 kts | 326° |
| 2026-05-06 17:02 | 42.62859 | 49.38221 | 40010 ft | 484 kts | 327° |
| 2026-05-06 17:02 | 42.68821 | 49.34001 | 40010 ft | 484 kts | 327° |
| 2026-05-06 17:03 | 42.74812 | 49.29759 | 40009 ft | 484 kts | 327° |
| 2026-05-06 17:03 | 42.80770 | 49.25528 | 40018 ft | 483 kts | 327° |
| 2026-05-06 17:04 | 42.86733 | 49.21294 | 40007 ft | 483 kts | 327° |
| 2026-05-06 17:04 | 42.92671 | 49.17074 | 40010 ft | 483 kts | 327° |
| 2026-05-06 17:05 | 42.97647 | 49.13517 | 40000 ft | 482 kts | 327° |
| 2026-05-06 17:05 | 43.03592 | 49.09261 | 40001 ft | 482 kts | 327° |
| 2026-05-06 17:06 | 43.09560 | 49.04981 | 40000 ft | 482 kts | 327° |
| 2026-05-06 17:06 | 43.15492 | 49.00713 | 39995 ft | 482 kts | 327° |
| 2026-05-06 17:07 | 43.21437 | 48.96432 | 39993 ft | 482 kts | 327° |
| 2026-05-06 17:07 | 43.27368 | 48.92152 | 39990 ft | 482 kts | 327° |
| 2026-05-06 17:08 | 43.33319 | 48.87851 | 39993 ft | 482 kts | 327° |
| 2026-05-06 17:08 | 43.39253 | 48.83559 | 39988 ft | 482 kts | 327° |
| 2026-05-06 17:09 | 43.45210 | 48.79237 | 39986 ft | 482 kts | 327° |
| 2026-05-06 17:09 | 43.51123 | 48.74934 | 39984 ft | 482 kts | 327° |
| 2026-05-06 17:10 | 43.57084 | 48.70591 | 39982 ft | 483 kts | 328° |
| 2026-05-06 17:10 | 43.63007 | 48.66261 | 39977 ft | 483 kts | 327° |
| 2026-05-06 17:11 | 43.68929 | 48.61917 | 39976 ft | 483 kts | 327° |
| 2026-05-06 17:11 | 43.74885 | 48.57541 | 39975 ft | 483 kts | 327° |
| 2026-05-06 17:12 | 43.80814 | 48.53177 | 39976 ft | 483 kts | 328° |
| 2026-05-06 17:12 | 43.86725 | 48.48816 | 39967 ft | 483 kts | 328° |
| 2026-05-06 17:13 | 43.92685 | 48.44413 | 39966 ft | 483 kts | 328° |
| 2026-05-06 17:13 | 43.98612 | 48.40025 | 39961 ft | 483 kts | 328° |
| 2026-05-06 17:14 | 44.04524 | 48.35631 | 39963 ft | 483 kts | 328° |
| 2026-05-06 17:14 | 44.10472 | 48.31214 | 39964 ft | 483 kts | 328° |
| 2026-05-06 17:15 | 44.16395 | 48.26790 | 39955 ft | 483 kts | 328° |
| 2026-05-06 17:15 | 44.22340 | 48.22349 | 39962 ft | 483 kts | 328° |
| 2026-05-06 17:16 | 44.28273 | 48.17910 | 39954 ft | 483 kts | 328° |
| 2026-05-06 17:16 | 44.34177 | 48.13474 | 39948 ft | 483 kts | 328° |
| 2026-05-06 17:17 | 44.40219 | 48.09334 | 39950 ft | 485 kts | 331° |
| 2026-05-06 17:17 | 44.46337 | 48.05357 | 39944 ft | 485 kts | 332° |
| 2026-05-06 17:18 | 44.52437 | 48.01380 | 39945 ft | 484 kts | 332° |
| 2026-05-06 17:18 | 44.58547 | 47.97351 | 39942 ft | 484 kts | 331° |
| 2026-05-06 17:19 | 44.64640 | 47.93290 | 39940 ft | 484 kts | 332° |
| 2026-05-06 17:19 | 44.70729 | 47.89237 | 39934 ft | 484 kts | 332° |
| 2026-05-06 17:20 | 44.76822 | 47.85171 | 39933 ft | 483 kts | 332° |
| 2026-05-06 17:20 | 44.82882 | 47.81112 | 39934 ft | 483 kts | 332° |
| 2026-05-06 17:21 | 44.88963 | 47.77034 | 39929 ft | 483 kts | 332° |
| 2026-05-06 17:21 | 44.95016 | 47.72970 | 39928 ft | 483 kts | 332° |
| 2026-05-06 17:22 | 45.01072 | 47.68890 | 39921 ft | 482 kts | 332° |
| 2026-05-06 17:22 | 45.07127 | 47.64803 | 39924 ft | 482 kts | 332° |
| 2026-05-06 17:23 | 45.13220 | 47.60687 | 39923 ft | 482 kts | 332° |
| 2026-05-06 17:23 | 45.19256 | 47.56594 | 39926 ft | 482 kts | 332° |
| 2026-05-06 17:24 | 45.25292 | 47.52495 | 39919 ft | 482 kts | 332° |
| 2026-05-06 17:24 | 45.31367 | 47.48356 | 39925 ft | 482 kts | 332° |
| 2026-05-06 17:25 | 45.37391 | 47.44241 | 39915 ft | 482 kts | 332° |
| 2026-05-06 17:25 | 45.43436 | 47.40102 | 39911 ft | 482 kts | 332° |
| 2026-05-06 17:26 | 45.49494 | 47.35945 | 39916 ft | 482 kts | 332° |
| 2026-05-06 17:26 | 45.55548 | 47.31788 | 39903 ft | 482 kts | 332° |
| 2026-05-06 17:27 | 45.61577 | 47.27640 | 39911 ft | 482 kts | 332° |
| 2026-05-06 17:27 | 45.67633 | 47.23466 | 39902 ft | 482 kts | 332° |
| 2026-05-06 17:28 | 45.73654 | 47.19291 | 39895 ft | 482 kts | 332° |
| 2026-05-06 17:28 | 45.79689 | 47.15098 | 39898 ft | 482 kts | 332° |
| 2026-05-06 17:29 | 45.85704 | 47.10907 | 39894 ft | 482 kts | 332° |
| 2026-05-06 17:29 | 45.91761 | 47.06676 | 39888 ft | 482 kts | 332° |
| 2026-05-06 17:30 | 45.97677 | 47.02207 | 39901 ft | 481 kts | 330° |
| 2026-05-06 17:30 | 46.03610 | 46.97588 | 39899 ft | 481 kts | 330° |
| 2026-05-06 17:31 | 46.09522 | 46.92997 | 39892 ft | 481 kts | 330° |
| 2026-05-06 17:31 | 46.15410 | 46.88416 | 39885 ft | 481 kts | 330° |
| 2026-05-06 17:32 | 46.21324 | 46.83937 | 39883 ft | 481 kts | 333° |
| 2026-05-06 17:32 | 46.27390 | 46.79803 | 39894 ft | 481 kts | 333° |
| 2026-05-06 17:33 | 46.33458 | 46.75714 | 39880 ft | 481 kts | 334° |
| 2026-05-06 17:33 | 46.39519 | 46.71612 | 39884 ft | 481 kts | 333° |
| 2026-05-06 17:34 | 46.45583 | 46.67491 | 39892 ft | 481 kts | 334° |
| 2026-05-06 17:34 | 46.51637 | 46.63365 | 39893 ft | 481 kts | 334° |
| 2026-05-06 17:35 | 46.57682 | 46.59234 | 39888 ft | 481 kts | 334° |
| 2026-05-06 17:35 | 46.63757 | 46.55073 | 39885 ft | 481 kts | 334° |
| 2026-05-06 17:36 | 46.72808 | 46.48854 | 39887 ft | 480 kts | 334° |
| 2026-05-06 17:36 | 46.78869 | 46.44678 | 39895 ft | 480 kts | 334° |
| 2026-05-06 17:37 | 46.84899 | 46.40511 | 39882 ft | 480 kts | 334° |
| 2026-05-06 17:37 | 46.90958 | 46.36314 | 39892 ft | 480 kts | 334° |
| 2026-05-06 17:38 | 46.96980 | 46.32135 | 39890 ft | 480 kts | 334° |
| 2026-05-06 17:38 | 47.03012 | 46.27951 | 39897 ft | 480 kts | 334° |
| 2026-05-06 17:39 | 47.09064 | 46.23728 | 39884 ft | 479 kts | 334° |
| 2026-05-06 17:39 | 47.15074 | 46.19513 | 39889 ft | 479 kts | 334° |
| 2026-05-06 17:40 | 47.21082 | 46.15297 | 39888 ft | 479 kts | 334° |
| 2026-05-06 17:40 | 47.27128 | 46.11047 | 39882 ft | 479 kts | 334° |
| 2026-05-06 17:41 | 47.33128 | 46.06818 | 39888 ft | 479 kts | 334° |
| 2026-05-06 17:41 | 47.39125 | 46.02589 | 39883 ft | 479 kts | 334° |
| 2026-05-06 17:42 | 47.45181 | 45.98308 | 39882 ft | 479 kts | 334° |
| 2026-05-06 17:42 | 47.51187 | 45.94041 | 39886 ft | 479 kts | 334° |
| 2026-05-06 17:43 | 47.57190 | 45.89767 | 39886 ft | 479 kts | 334° |
| 2026-05-06 17:43 | 47.63179 | 45.85493 | 39886 ft | 479 kts | 334° |
| 2026-05-06 17:44 | 47.69209 | 45.81181 | 39890 ft | 479 kts | 334° |
| 2026-05-06 17:44 | 47.74189 | 45.77611 | 39886 ft | 479 kts | 334° |
| 2026-05-06 17:45 | 47.80222 | 45.73277 | 39892 ft | 479 kts | 334° |
| 2026-05-06 17:45 | 47.86209 | 45.68964 | 39888 ft | 479 kts | 334° |
| 2026-05-06 17:46 | 47.92184 | 45.64648 | 39892 ft | 478 kts | 334° |
| 2026-05-06 17:46 | 47.98166 | 45.60317 | 39892 ft | 479 kts | 334° |
| 2026-05-06 17:47 | 48.04205 | 45.55934 | 39890 ft | 478 kts | 334° |
| 2026-05-06 17:47 | 48.10177 | 45.51589 | 39888 ft | 478 kts | 334° |
| 2026-05-06 17:48 | 48.16143 | 45.47235 | 39889 ft | 478 kts | 334° |
| 2026-05-06 17:48 | 48.22145 | 45.42847 | 39888 ft | 478 kts | 334° |
| 2026-05-06 17:49 | 48.28118 | 45.38469 | 39892 ft | 478 kts | 334° |
| 2026-05-06 17:49 | 48.34048 | 45.34108 | 39892 ft | 478 kts | 334° |
| 2026-05-06 17:50 | 48.39901 | 45.29306 | 39893 ft | 478 kts | 328° |
| 2026-05-06 17:50 | 48.45347 | 45.23608 | 39895 ft | 478 kts | 323° |
| 2026-05-06 17:51 | 48.50627 | 45.17437 | 39895 ft | 478 kts | 322° |
| 2026-05-06 17:51 | 48.55859 | 45.11281 | 39898 ft | 477 kts | 322° |
| 2026-05-06 17:52 | 48.61083 | 45.05148 | 39893 ft | 477 kts | 322° |
| 2026-05-06 17:52 | 48.66352 | 44.98938 | 39897 ft | 477 kts | 322° |
| 2026-05-06 17:53 | 48.71582 | 44.92766 | 39912 ft | 477 kts | 322° |
| 2026-05-06 17:53 | 48.76806 | 44.86581 | 39913 ft | 477 kts | 322° |
| 2026-05-06 17:54 | 48.82036 | 44.80379 | 39907 ft | 476 kts | 322° |
| 2026-05-06 17:54 | 48.87234 | 44.74074 | 39908 ft | 476 kts | 321° |
| 2026-05-06 17:55 | 48.92185 | 44.67884 | 39908 ft | 476 kts | 320° |
| 2026-05-06 17:55 | 48.97277 | 44.61474 | 39915 ft | 476 kts | 321° |
| 2026-05-06 17:56 | 49.02415 | 44.55014 | 39908 ft | 476 kts | 321° |
| 2026-05-06 17:56 | 49.07518 | 44.48596 | 39914 ft | 476 kts | 321° |
| 2026-05-06 17:57 | 49.12651 | 44.42129 | 39908 ft | 476 kts | 321° |
| 2026-05-06 17:57 | 49.17738 | 44.35704 | 39906 ft | 476 kts | 321° |
| 2026-05-06 17:58 | 49.22893 | 44.29187 | 39895 ft | 476 kts | 321° |
| 2026-05-06 17:58 | 49.28023 | 44.22695 | 39898 ft | 476 kts | 321° |
| 2026-05-06 17:59 | 49.33100 | 44.16233 | 39912 ft | 476 kts | 321° |
| 2026-05-06 17:59 | 49.38199 | 44.09717 | 39907 ft | 476 kts | 321° |
| 2026-05-06 18:00 | 49.43305 | 44.03185 | 39904 ft | 475 kts | 320° |
| 2026-05-06 18:00 | 49.48219 | 43.96852 | 39895 ft | 474 kts | 320° |
| 2026-05-06 18:01 | 49.53312 | 43.90287 | 39893 ft | 474 kts | 321° |
| 2026-05-06 18:01 | 49.58385 | 43.83744 | 39900 ft | 473 kts | 321° |
| 2026-05-06 18:02 | 49.63428 | 43.77226 | 39895 ft | 473 kts | 321° |
| 2026-05-06 18:02 | 49.68486 | 43.70670 | 39899 ft | 472 kts | 321° |
| 2026-05-06 18:03 | 49.73506 | 43.64132 | 39906 ft | 472 kts | 321° |
| 2026-05-06 18:03 | 49.78555 | 43.57538 | 39896 ft | 472 kts | 321° |
| 2026-05-06 18:04 | 49.83549 | 43.50998 | 39900 ft | 471 kts | 321° |
| 2026-05-06 18:04 | 49.88384 | 43.44652 | 39905 ft | 471 kts | 321° |
| 2026-05-06 18:05 | 49.93524 | 43.37883 | 39894 ft | 471 kts | 320° |
| 2026-05-06 18:05 | 49.98493 | 43.31312 | 39899 ft | 471 kts | 320° |
| 2026-05-06 18:06 | 50.03438 | 43.24749 | 39902 ft | 470 kts | 320° |
| 2026-05-06 18:06 | 50.08469 | 43.18046 | 39893 ft | 470 kts | 320° |
| 2026-05-06 18:07 | 50.13435 | 43.11428 | 39895 ft | 470 kts | 320° |
| 2026-05-06 18:07 | 50.18435 | 43.04751 | 39896 ft | 470 kts | 320° |
| 2026-05-06 18:08 | 50.23387 | 42.98114 | 39898 ft | 470 kts | 320° |
| 2026-05-06 18:08 | 50.28366 | 42.91425 | 39894 ft | 470 kts | 320° |
| 2026-05-06 18:09 | 50.33303 | 42.84778 | 39896 ft | 470 kts | 320° |
| 2026-05-06 18:09 | 50.38276 | 42.78062 | 39893 ft | 469 kts | 320° |
| 2026-05-06 18:10 | 50.43209 | 42.71377 | 39886 ft | 469 kts | 320° |
| 2026-05-06 18:10 | 50.48131 | 42.64690 | 39887 ft | 469 kts | 319° |
| 2026-05-06 18:11 | 50.52325 | 42.59237 | 39882 ft | 469 kts | 323° |
| 2026-05-06 18:11 | 50.58647 | 42.52592 | 39885 ft | 468 kts | 330° |
| 2026-05-06 18:12 | 50.64305 | 42.47470 | 39891 ft | 468 kts | 331° |
| 2026-05-06 18:12 | 50.69964 | 42.42371 | 39880 ft | 468 kts | 330° |
| 2026-05-06 18:13 | 50.75585 | 42.37267 | 39889 ft | 468 kts | 330° |
| 2026-05-06 18:13 | 50.81241 | 42.32116 | 39885 ft | 468 kts | 330° |
| 2026-05-06 18:14 | 50.86834 | 42.27000 | 39890 ft | 467 kts | 330° |
| 2026-05-06 18:14 | 50.92481 | 42.21827 | 39888 ft | 467 kts | 330° |
| 2026-05-06 18:15 | 50.98092 | 42.16671 | 39894 ft | 467 kts | 330° |
| 2026-05-06 18:15 | 51.03741 | 42.11461 | 39887 ft | 467 kts | 330° |
| 2026-05-06 18:16 | 51.09336 | 42.06289 | 39889 ft | 467 kts | 330° |
| 2026-05-06 18:16 | 51.14936 | 42.01096 | 39888 ft | 466 kts | 330° |
| 2026-05-06 18:17 | 51.19616 | 41.96749 | 39886 ft | 466 kts | 330° |
| 2026-05-06 18:17 | 51.25233 | 41.91512 | 39881 ft | 466 kts | 330° |
| 2026-05-06 18:18 | 51.30833 | 41.86278 | 39881 ft | 466 kts | 330° |
| 2026-05-06 18:18 | 51.36415 | 41.81041 | 39888 ft | 466 kts | 329° |
| 2026-05-06 18:19 | 51.42008 | 41.75766 | 39888 ft | 466 kts | 329° |
| 2026-05-06 18:19 | 51.47617 | 41.70462 | 39882 ft | 466 kts | 329° |
| 2026-05-06 18:20 | 51.53173 | 41.65205 | 39889 ft | 466 kts | 329° |
| 2026-05-06 18:20 | 51.58774 | 41.59911 | 39886 ft | 466 kts | 329° |
| 2026-05-06 18:21 | 51.64361 | 41.54589 | 39883 ft | 465 kts | 329° |
| 2026-05-06 18:21 | 51.69916 | 41.49272 | 39884 ft | 465 kts | 329° |
| 2026-05-06 18:22 | 51.75504 | 41.43930 | 39881 ft | 465 kts | 329° |
| 2026-05-06 18:22 | 51.81054 | 41.38602 | 39884 ft | 465 kts | 329° |
| 2026-05-06 18:23 | 51.86631 | 41.33248 | 39884 ft | 465 kts | 329° |
| 2026-05-06 18:23 | 51.92176 | 41.27909 | 39884 ft | 465 kts | 329° |
| 2026-05-06 18:24 | 51.97704 | 41.22564 | 39879 ft | 465 kts | 329° |
| 2026-05-06 18:24 | 52.03278 | 41.17156 | 39883 ft | 464 kts | 328° |
| 2026-05-06 18:25 | 52.08805 | 41.11773 | 39882 ft | 464 kts | 328° |
| 2026-05-06 18:25 | 52.14355 | 41.06354 | 39883 ft | 464 kts | 328° |
| 2026-05-06 18:26 | 52.19860 | 41.00956 | 39883 ft | 464 kts | 328° |
| 2026-05-06 18:26 | 52.25413 | 40.95499 | 39875 ft | 463 kts | 328° |
| 2026-05-06 18:27 | 52.30902 | 40.90078 | 39886 ft | 463 kts | 328° |
| 2026-05-06 18:27 | 52.36430 | 40.84615 | 39884 ft | 463 kts | 328° |
| 2026-05-06 18:28 | 52.41966 | 40.79139 | 39875 ft | 463 kts | 328° |
| 2026-05-06 18:28 | 52.47467 | 40.73677 | 39886 ft | 463 kts | 328° |
| 2026-05-06 18:29 | 52.52948 | 40.68213 | 39879 ft | 462 kts | 328° |
| 2026-05-06 18:29 | 52.58454 | 40.62701 | 39884 ft | 462 kts | 328° |
| 2026-05-06 18:30 | 52.63950 | 40.57188 | 39882 ft | 462 kts | 328° |
| 2026-05-06 18:30 | 52.69425 | 40.51686 | 39875 ft | 462 kts | 328° |
| 2026-05-06 18:31 | 52.74922 | 40.46144 | 39881 ft | 461 kts | 327° |
| 2026-05-06 18:31 | 52.80416 | 40.40584 | 39876 ft | 461 kts | 327° |
| 2026-05-06 18:32 | 52.85870 | 40.35049 | 39883 ft | 461 kts | 327° |
| 2026-05-06 18:32 | 52.91315 | 40.29500 | 39885 ft | 461 kts | 327° |
| 2026-05-06 18:33 | 52.96795 | 40.23896 | 39871 ft | 461 kts | 327° |
| 2026-05-06 18:33 | 53.02221 | 40.18344 | 39879 ft | 460 kts | 327° |
| 2026-05-06 18:34 | 53.07681 | 40.12717 | 39877 ft | 460 kts | 327° |
| 2026-05-06 18:34 | 53.13099 | 40.07118 | 39879 ft | 460 kts | 327° |
| 2026-05-06 18:35 | 53.18570 | 40.01486 | 39874 ft | 460 kts | 327° |
| 2026-05-06 18:35 | 53.24006 | 39.95868 | 39878 ft | 459 kts | 327° |
| 2026-05-06 18:36 | 53.29441 | 39.90223 | 39880 ft | 459 kts | 327° |
| 2026-05-06 18:36 | 53.34849 | 39.84582 | 39874 ft | 459 kts | 327° |
| 2026-05-06 18:37 | 53.40279 | 39.78903 | 39882 ft | 459 kts | 327° |
| 2026-05-06 18:37 | 53.45685 | 39.73227 | 39875 ft | 458 kts | 326° |
| 2026-05-06 18:38 | 53.51078 | 39.67540 | 39585 ft | 458 kts | 326° |
| 2026-05-06 18:38 | 53.53785 | 39.64681 | 39352 ft | 458 kts | 326° |
| 2026-05-06 18:38 | 53.56500 | 39.61805 | 39113 ft | 457 kts | 326° |
| 2026-05-06 18:39 | 53.59161 | 39.58985 | 38899 ft | 457 kts | 326° |
| 2026-05-06 18:39 | 53.61864 | 39.56115 | 38683 ft | 456 kts | 326° |
| 2026-05-06 18:39 | 53.64557 | 39.53254 | 38425 ft | 456 kts | 326° |
| 2026-05-06 18:40 | 53.69907 | 39.47571 | 37854 ft | 456 kts | 326° |
| 2026-05-06 18:40 | 53.72605 | 39.44697 | 37576 ft | 456 kts | 326° |
| 2026-05-06 18:40 | 53.75297 | 39.41823 | 37296 ft | 457 kts | 326° |
| 2026-05-06 18:40 | 53.77966 | 39.38969 | 37030 ft | 457 kts | 327° |
| 2026-05-06 18:41 | 53.80655 | 39.36096 | 36752 ft | 456 kts | 327° |
| 2026-05-06 18:41 | 53.83429 | 39.33536 | 36479 ft | 450 kts | 333° |
| 2026-05-06 18:41 | 53.86254 | 39.31248 | 36207 ft | 449 kts | 334° |
| 2026-05-06 18:41 | 53.89099 | 39.29000 | 35978 ft | 449 kts | 334° |
| 2026-05-06 18:42 | 53.91898 | 39.26784 | 35716 ft | 450 kts | 334° |
| 2026-05-06 18:42 | 53.94735 | 39.24523 | 35455 ft | 450 kts | 334° |
| 2026-05-06 18:42 | 53.97566 | 39.22252 | 35209 ft | 450 kts | 334° |
| 2026-05-06 18:42 | 54.00414 | 39.19946 | 34954 ft | 450 kts | 334° |
| 2026-05-06 18:43 | 54.03256 | 39.17642 | 34714 ft | 451 kts | 334° |
| 2026-05-06 18:43 | 54.06064 | 39.15360 | 34469 ft | 451 kts | 334° |
| 2026-05-06 18:43 | 54.08908 | 39.13041 | 34228 ft | 452 kts | 334° |
| 2026-05-06 18:43 | 54.11746 | 39.10722 | 33986 ft | 452 kts | 334° |
| 2026-05-06 18:44 | 54.14594 | 39.08391 | 33722 ft | 453 kts | 334° |
| 2026-05-06 18:44 | 54.17461 | 39.06042 | 33443 ft | 454 kts | 334° |
| 2026-05-06 18:44 | 54.20321 | 39.03697 | 33169 ft | 454 kts | 334° |
| 2026-05-06 18:44 | 54.23158 | 39.01367 | 32895 ft | 455 kts | 334° |
| 2026-05-06 18:45 | 54.26025 | 38.99009 | 32631 ft | 455 kts | 334° |
| 2026-05-06 18:45 | 54.28883 | 38.96652 | 32377 ft | 456 kts | 334° |
| 2026-05-06 18:45 | 54.31755 | 38.94280 | 32101 ft | 456 kts | 334° |
| 2026-05-06 18:45 | 54.33643 | 38.92717 | 31928 ft | 457 kts | 334° |
| 2026-05-06 18:46 | 54.37463 | 38.89552 | 31578 ft | 458 kts | 334° |
| 2026-05-06 18:46 | 54.40336 | 38.87167 | 31327 ft | 458 kts | 334° |
| 2026-05-06 18:46 | 54.43217 | 38.84760 | 31067 ft | 459 kts | 333° |
| 2026-05-06 18:46 | 54.46096 | 38.82348 | 30807 ft | 460 kts | 333° |
| 2026-05-06 18:47 | 54.48952 | 38.79955 | 30570 ft | 460 kts | 334° |
| 2026-05-06 18:47 | 54.51845 | 38.77540 | 30331 ft | 461 kts | 334° |
| 2026-05-06 18:47 | 54.54729 | 38.75133 | 30078 ft | 457 kts | 334° |
| 2026-05-06 18:47 | 54.57580 | 38.72741 | 29815 ft | 458 kts | 334° |
| 2026-05-06 18:48 | 54.60469 | 38.70321 | 29527 ft | 459 kts | 334° |
| 2026-05-06 18:48 | 54.63356 | 38.67901 | 29234 ft | 458 kts | 334° |
| 2026-05-06 18:48 | 54.66187 | 38.65523 | 28963 ft | 456 kts | 333° |
| 2026-05-06 18:48 | 54.69058 | 38.63105 | 28682 ft | 455 kts | 333° |
| 2026-05-06 18:49 | 54.71920 | 38.60687 | 28405 ft | 452 kts | 333° |
| 2026-05-06 18:49 | 54.74692 | 38.58343 | 28136 ft | 449 kts | 333° |
| 2026-05-06 18:49 | 54.77517 | 38.55949 | 27865 ft | 449 kts | 333° |
| 2026-05-06 18:49 | 54.80352 | 38.53544 | 27602 ft | 447 kts | 333° |
| 2026-05-06 18:50 | 54.83211 | 38.51115 | 27326 ft | 446 kts | 333° |
| 2026-05-06 18:50 | 54.86003 | 38.48739 | 27058 ft | 444 kts | 333° |
| 2026-05-06 18:50 | 54.88768 | 38.46378 | 26806 ft | 442 kts | 333° |
| 2026-05-06 18:50 | 54.91534 | 38.44017 | 26544 ft | 440 kts | 333° |
| 2026-05-06 18:51 | 54.94252 | 38.41693 | 26303 ft | 438 kts | 333° |
| 2026-05-06 18:51 | 54.96998 | 38.39341 | 26046 ft | 436 kts | 332° |
| 2026-05-06 18:51 | 54.99729 | 38.36997 | 25792 ft | 435 kts | 332° |
| 2026-05-06 18:51 | 55.02431 | 38.34675 | 25549 ft | 433 kts | 332° |
| 2026-05-06 18:52 | 55.05136 | 38.32347 | 25298 ft | 431 kts | 332° |
| 2026-05-06 18:52 | 55.07831 | 38.30018 | 25050 ft | 430 kts | 332° |
| 2026-05-06 18:52 | 55.10485 | 38.27724 | 24818 ft | 428 kts | 332° |
| 2026-05-06 18:52 | 55.13162 | 38.25406 | 24568 ft | 426 kts | 332° |
| 2026-05-06 18:53 | 55.15792 | 38.23130 | 24335 ft | 425 kts | 332° |
| 2026-05-06 18:53 | 55.18447 | 38.20827 | 24090 ft | 423 kts | 332° |
| 2026-05-06 18:53 | 55.20192 | 38.19311 | 23913 ft | 422 kts | 332° |
| 2026-05-06 18:53 | 55.22830 | 38.17019 | 23583 ft | 420 kts | 332° |
| 2026-05-06 18:54 | 55.25443 | 38.14743 | 23135 ft | 417 kts | 331° |
| 2026-05-06 18:54 | 55.28045 | 38.12475 | 22656 ft | 413 kts | 331° |
| 2026-05-06 18:54 | 55.30590 | 38.10251 | 22191 ft | 410 kts | 331° |
| 2026-05-06 18:54 | 55.33140 | 38.08016 | 21735 ft | 407 kts | 331° |
| 2026-05-06 18:55 | 55.35645 | 38.05817 | 21281 ft | 404 kts | 331° |
| 2026-05-06 18:55 | 55.38150 | 38.03617 | 20825 ft | 400 kts | 331° |
| 2026-05-06 18:55 | 55.40638 | 38.01433 | 20368 ft | 397 kts | 330° |
| 2026-05-06 18:55 | 55.43107 | 37.99256 | 19910 ft | 394 kts | 330° |
| 2026-05-06 18:56 | 55.45560 | 37.97097 | 19454 ft | 392 kts | 330° |
| 2026-05-06 18:56 | 55.48005 | 37.94946 | 18999 ft | 389 kts | 330° |
| 2026-05-06 18:56 | 55.50418 | 37.92812 | 18545 ft | 387 kts | 330° |
| 2026-05-06 18:56 | 55.52804 | 37.90703 | 18062 ft | 385 kts | 330° |
| 2026-05-06 18:57 | 55.55190 | 37.88585 | 17585 ft | 382 kts | 330° |
| 2026-05-06 18:57 | 55.57564 | 37.86484 | 17146 ft | 379 kts | 330° |
| 2026-05-06 18:57 | 55.59918 | 37.84401 | 16702 ft | 375 kts | 330° |
| 2026-05-06 18:57 | 55.62220 | 37.82359 | 16263 ft | 372 kts | 330° |
| 2026-05-06 18:58 | 55.64530 | 37.80303 | 15836 ft | 369 kts | 330° |
| 2026-05-06 18:58 | 55.66816 | 37.78262 | 15408 ft | 366 kts | 330° |
| 2026-05-06 18:58 | 55.69119 | 37.76198 | 14982 ft | 363 kts | 330° |
| 2026-05-06 18:58 | 55.71344 | 37.74210 | 14564 ft | 361 kts | 330° |
| 2026-05-06 18:59 | 55.73587 | 37.72199 | 14127 ft | 358 kts | 330° |
| 2026-05-06 18:59 | 55.75809 | 37.70211 | 13707 ft | 356 kts | 330° |
| 2026-05-06 18:59 | 55.78020 | 37.68230 | 13242 ft | 353 kts | 330° |
| 2026-05-06 18:59 | 55.80187 | 37.66286 | 12773 ft | 350 kts | 330° |
| 2026-05-06 19:00 | 55.82357 | 37.64338 | 12325 ft | 347 kts | 329° |
| 2026-05-06 19:00 | 55.84545 | 37.62366 | 11881 ft | 345 kts | 329° |
| 2026-05-06 19:00 | 55.86719 | 37.60409 | 11418 ft | 342 kts | 329° |
| 2026-05-06 19:00 | 55.88854 | 37.58485 | 10970 ft | 340 kts | 329° |
| 2026-05-06 19:01 | 55.90992 | 37.56556 | 10672 ft | 333 kts | 329° |
| 2026-05-06 19:01 | 55.93019 | 37.54724 | 10566 ft | 319 kts | 329° |
| 2026-05-06 19:01 | 55.94949 | 37.52968 | 10386 ft | 309 kts | 328° |
| 2026-05-06 19:01 | 55.96874 | 37.51210 | 9999 ft | 306 kts | 328° |
| 2026-05-06 19:02 | 55.98782 | 37.49466 | 9513 ft | 306 kts | 329° |
| 2026-05-06 19:02 | 56.00695 | 37.47722 | 9108 ft | 303 kts | 329° |
| 2026-05-06 19:02 | 56.02569 | 37.46018 | 8671 ft | 301 kts | 329° |
| 2026-05-06 19:02 | 56.04437 | 37.44326 | 8256 ft | 299 kts | 329° |
| 2026-05-06 19:03 | 56.06299 | 37.42636 | 7844 ft | 297 kts | 328° |
| 2026-05-06 19:03 | 56.08240 | 37.40857 | 7412 ft | 295 kts | 328° |
| 2026-05-06 19:03 | 56.10052 | 37.39191 | 7061 ft | 292 kts | 328° |
| 2026-05-06 19:03 | 56.11830 | 37.37571 | 6999 ft | 278 kts | 328° |
| 2026-05-06 19:04 | 56.13510 | 37.35964 | 6982 ft | 264 kts | 320° |
| 2026-05-06 19:04 | 56.14733 | 37.33592 | 6985 ft | 255 kts | 296° |
| 2026-05-06 19:04 | 56.15291 | 37.30689 | 6749 ft | 248 kts | 275° |
| 2026-05-06 19:04 | 56.15112 | 37.27591 | 6268 ft | 253 kts | 252° |
| 2026-05-06 19:05 | 56.14289 | 37.25007 | 5926 ft | 255 kts | 236° |
| 2026-05-06 19:05 | 56.13234 | 37.22506 | 5952 ft | 255 kts | 236° |
| 2026-05-06 19:05 | 56.12153 | 37.19959 | 5985 ft | 256 kts | 236° |
| 2026-05-06 19:05 | 56.11070 | 37.17412 | 5993 ft | 255 kts | 236° |
| 2026-05-06 19:06 | 56.10005 | 37.14905 | 5784 ft | 251 kts | 236° |
| 2026-05-06 19:06 | 56.08936 | 37.12377 | 5317 ft | 256 kts | 235° |
| 2026-05-06 19:06 | 56.07849 | 37.09813 | 4934 ft | 257 kts | 235° |
| 2026-05-06 19:06 | 56.06768 | 37.07278 | 4571 ft | 258 kts | 234° |
| 2026-05-06 19:07 | 56.05681 | 37.04722 | 4182 ft | 259 kts | 234° |
| 2026-05-06 19:07 | 56.04577 | 37.02136 | 3998 ft | 259 kts | 233° |
| 2026-05-06 19:07 | 56.03465 | 36.99552 | 3999 ft | 262 kts | 233° |
| 2026-05-06 19:07 | 56.02351 | 36.96965 | 4007 ft | 262 kts | 233° |
| 2026-05-06 19:08 | 56.01223 | 36.94390 | 3981 ft | 259 kts | 229° |
| 2026-05-06 19:08 | 55.99725 | 36.92613 | 3562 ft | 263 kts | 197° |
| 2026-05-06 19:08 | 55.97925 | 36.92464 | 3179 ft | 265 kts | 167° |
| 2026-05-06 19:08 | 55.96246 | 36.93909 | 3010 ft | 262 kts | 144° |
| 2026-05-06 19:09 | 55.95385 | 36.95013 | 3013 ft | 263 kts | 143° |
| 2026-05-06 19:09 | 55.94630 | 36.95999 | 3006 ft | 264 kts | 143° |
| 2026-05-06 19:09 | 55.94384 | 36.96321 | 3006 ft | 264 kts | 143° |
| 2026-05-06 19:09 | 55.93379 | 36.97626 | 3004 ft | 262 kts | 143° |
| 2026-05-06 19:10 | 55.91951 | 36.99617 | 2974 ft | 249 kts | 130° |
| 2026-05-06 19:10 | 55.91286 | 37.02313 | 2969 ft | 230 kts | 92° |
| 2026-05-06 19:10 | 55.91531 | 37.05126 | 3004 ft | 229 kts | 72° |
| 2026-05-06 19:10 | 55.92049 | 37.07823 | 2997 ft | 226 kts | 70° |
| 2026-05-06 19:11 | 55.92522 | 37.10397 | 2982 ft | 214 kts | 72° |
| 2026-05-06 19:11 | 55.92935 | 37.12965 | 2987 ft | 209 kts | 74° |
| 2026-05-06 19:11 | 55.93313 | 37.15492 | 2990 ft | 205 kts | 74° |
| 2026-05-06 19:11 | 55.93660 | 37.17879 | 2943 ft | 193 kts | 74° |
| 2026-05-06 19:12 | 55.93992 | 37.20167 | 2751 ft | 188 kts | 74° |
| 2026-05-06 19:12 | 55.94319 | 37.22415 | 2490 ft | 184 kts | 74° |
| 2026-05-06 19:12 | 55.94635 | 37.24578 | 2215 ft | 177 kts | 74° |
| 2026-05-06 19:12 | 55.94942 | 37.26676 | 1955 ft | 165 kts | 74° |
| 2026-05-06 19:13 | 55.95222 | 37.28586 | 1769 ft | 151 kts | 73° |